Terminal Aerodrome Forecast
Issued by NWS

Home | Current Version | Previous Version | Text Only | Print | Product List | Glossary On
Versions: 1 2 3 4 5 6 7 8 9 10 11 12 13 14 15 16 17 18 19 20 21 22 23
000
FTUS45 KSLC 241740
TAFSGU
TAF
KSGU 241740Z 2418/2518 VRB05KT P6SM SKC
     FM242100 26010G16KT P6SM FEW150
     FM250100 25010KT P6SM FEW150
     FM250300 16006KT P6SM SKC
      AMD LTD TO CLD VIS AND WIND=

USA.gov is the U.S. government's official web portal to all federal, state and local government web resources and services.